sensor_id;sensor_type;location;lat;lon;timestamp;pressure;altitude;pressure_sealevel;temperature
31528;BMP280;10206;48.012;10.030;2023-05-20T00:00:46;94792.34;;;15.08
31528;BMP280;10206;48.012;10.030;2023-05-20T00:03:16;94793.28;;;15.13
31528;BMP280;10206;48.012;10.030;2023-05-20T00:05:42;94786.22;;;15.10
31528;BMP280;10206;48.012;10.030;2023-05-20T00:08:08;94786.97;;;14.99
31528;BMP280;10206;48.012;10.030;2023-05-20T00:10:35;94780.22;;;14.90
31528;BMP280;10206;48.012;10.030;2023-05-20T00:13:02;94777.41;;;15.00
31528;BMP280;10206;48.012;10.030;2023-05-20T00:15:28;94775.94;;;14.87
31528;BMP280;10206;48.012;10.030;2023-05-20T00:17:55;94774.66;;;14.88
31528;BMP280;10206;48.012;10.030;2023-05-20T00:20:21;94768.91;;;14.96
31528;BMP280;10206;48.012;10.030;2023-05-20T00:22:47;94775.59;;;14.81
31528;BMP280;10206;48.012;10.030;2023-05-20T00:25:13;94767.34;;;14.81
31528;BMP280;10206;48.012;10.030;2023-05-20T00:27:42;94770.09;;;14.69
31528;BMP280;10206;48.012;10.030;2023-05-20T00:30:08;94770.09;;;14.69
31528;BMP280;10206;48.012;10.030;2023-05-20T00:32:35;94765.06;;;14.77
31528;BMP280;10206;48.012;10.030;2023-05-20T00:35:01;94763.50;;;14.74
31528;BMP280;10206;48.012;10.030;2023-05-20T00:37:27;94761.84;;;14.69
31528;BMP280;10206;48.012;10.030;2023-05-20T00:39:54;94765.88;;;14.68
31528;BMP280;10206;48.012;10.030;2023-05-20T00:42:25;94766.72;;;14.71
31528;BMP280;10206;48.012;10.030;2023-05-20T00:44:52;94767.34;;;14.81
31528;BMP280;10206;48.012;10.030;2023-05-20T00:47:26;94767.22;;;14.91
31528;BMP280;10206;48.012;10.030;2023-05-20T00:49:53;94762.59;;;14.93
31528;BMP280;10206;48.012;10.030;2023-05-20T00:52:20;94756.97;;;14.91
31528;BMP280;10206;48.012;10.030;2023-05-20T00:54:47;94751.22;;;14.87
31528;BMP280;10206;48.012;10.030;2023-05-20T00:57:14;94756.47;;;14.95
31528;BMP280;10206;48.012;10.030;2023-05-20T00:59:41;94754.09;;;15.01
31528;BMP280;10206;48.012;10.030;2023-05-20T01:02:07;94756.75;;;14.99
31528;BMP280;10206;48.012;10.030;2023-05-20T01:04:34;94757.19;;;14.95
31528;BMP280;10206;48.012;10.030;2023-05-20T01:07:02;94755.50;;;14.90
31528;BMP280;10206;48.012;10.030;2023-05-20T01:09:30;94753.63;;;14.81
31528;BMP280;10206;48.012;10.030;2023-05-20T01:12:15;94753.63;;;14.81
31528;BMP280;10206;48.012;10.030;2023-05-20T01:15:09;94746.13;;;14.93
31528;BMP280;10206;48.012;10.030;2023-05-20T01:17:45;94747.56;;;15.06
31528;BMP280;10206;48.012;10.030;2023-05-20T01:20:12;94744.69;;;14.92
31528;BMP280;10206;48.012;10.030;2023-05-20T01:22:47;94749.66;;;14.72
31528;BMP280;10206;48.012;10.030;2023-05-20T01:25:13;94750.50;;;14.75
31528;BMP280;10206;48.012;10.030;2023-05-20T01:27:39;94744.06;;;14.94
31528;BMP280;10206;48.012;10.030;2023-05-20T01:30:06;94743.38;;;15.05
31528;BMP280;10206;48.012;10.030;2023-05-20T01:32:36;94740.84;;;15.09
31528;BMP280;10206;48.012;10.030;2023-05-20T01:35:03;94740.34;;;15.01
31528;BMP280;10206;48.012;10.030;2023-05-20T01:37:30;94745.13;;;15.23
31528;BMP280;10206;48.012;10.030;2023-05-20T01:39:57;94733.34;;;15.09
31528;BMP280;10206;48.012;10.030;2023-05-20T01:42:26;94738.56;;;15.17
31528;BMP280;10206;48.012;10.030;2023-05-20T01:44:52;94735.22;;;15.07
31528;BMP280;10206;48.012;10.030;2023-05-20T01:47:19;94739.25;;;15.29
31528;BMP280;10206;48.012;10.030;2023-05-20T01:49:45;94736.16;;;15.34
31528;BMP280;10206;48.012;10.030;2023-05-20T01:52:12;94738.44;;;15.26
31528;BMP280;10206;48.012;10.030;2023-05-20T01:54:38;94741.66;;;15.34
31528;BMP280;10206;48.012;10.030;2023-05-20T01:57:05;94735.31;;;15.43
31528;BMP280;10206;48.012;10.030;2023-05-20T01:59:31;94732.09;;;15.47
31528;BMP280;10206;48.012;10.030;2023-05-20T02:01:57;94728.88;;;15.39
31528;BMP280;10206;48.012;10.030;2023-05-20T02:04:23;94730.66;;;15.34
31528;BMP280;10206;48.012;10.030;2023-05-20T02:06:49;94739.53;;;15.33
31528;BMP280;10206;48.012;10.030;2023-05-20T02:09:16;94742.84;;;14.97
31528;BMP280;10206;48.012;10.030;2023-05-20T02:11:42;94742.41;;;14.77
31528;BMP280;10206;48.012;10.030;2023-05-20T02:14:08;94741.41;;;15.42
31528;BMP280;10206;48.012;10.030;2023-05-20T02:16:35;94746.06;;;15.39
31528;BMP280;10206;48.012;10.030;2023-05-20T02:19:01;94751.19;;;15.45
31528;BMP280;10206;48.012;10.030;2023-05-20T02:21:27;94740.91;;;15.45
31528;BMP280;10206;48.012;10.030;2023-05-20T02:23:53;94740.06;;;15.54
31528;BMP280;10206;48.012;10.030;2023-05-20T02:26:19;94743.53;;;15.55
31528;BMP280;10206;48.012;10.030;2023-05-20T02:28:45;94741.91;;;15.50
31528;BMP280;10206;48.012;10.030;2023-05-20T02:31:15;94733.97;;;15.56
31528;BMP280;10206;48.012;10.030;2023-05-20T02:33:42;94727.72;;;15.19
31528;BMP280;10206;48.012;10.030;2023-05-20T02:36:08;94736.63;;;15.42
31528;BMP280;10206;48.012;10.030;2023-05-20T02:38:35;94740.31;;;15.35
31528;BMP280;10206;48.012;10.030;2023-05-20T02:41:01;94737.78;;;15.62
31528;BMP280;10206;48.012;10.030;2023-05-20T02:43:29;94744.56;;;15.73
31528;BMP280;10206;48.012;10.030;2023-05-20T02:45:56;94744.31;;;15.21
31528;BMP280;10206;48.012;10.030;2023-05-20T02:48:22;94735.88;;;15.65
31528;BMP280;10206;48.012;10.030;2023-05-20T02:50:48;94729.06;;;15.54
31528;BMP280;10206;48.012;10.030;2023-05-20T02:53:15;94732.03;;;15.70
31528;BMP280;10206;48.012;10.030;2023-05-20T02:55:41;94728.19;;;15.75
31528;BMP280;10206;48.012;10.030;2023-05-20T02:58:07;94726.25;;;15.78
31528;BMP280;10206;48.012;10.030;2023-05-20T03:00:33;94737.38;;;15.80
31528;BMP280;10206;48.012;10.030;2023-05-20T03:03:05;94728.13;;;15.87
31528;BMP280;10206;48.012;10.030;2023-05-20T03:05:32;94727.63;;;15.90
31528;BMP280;10206;48.012;10.030;2023-05-20T03:08:07;94731.00;;;15.89
31528;BMP280;10206;48.012;10.030;2023-05-20T03:10:35;94730.28;;;15.88
31528;BMP280;10206;48.012;10.030;2023-05-20T03:13:01;94727.22;;;15.82
31528;BMP280;10206;48.012;10.030;2023-05-20T03:15:27;94734.13;;;15.83
31528;BMP280;10206;48.012;10.030;2023-05-20T03:17:54;94718.69;;;15.90
31528;BMP280;10206;48.012;10.030;2023-05-20T03:20:20;94726.03;;;15.74
31528;BMP280;10206;48.012;10.030;2023-05-20T03:22:46;94720.25;;;15.81
31528;BMP280;10206;48.012;10.030;2023-05-20T03:25:12;94722.19;;;15.79
31528;BMP280;10206;48.012;10.030;2023-05-20T03:27:38;94717.41;;;15.79
31528;BMP280;10206;48.012;10.030;2023-05-20T03:30:05;94714.94;;;15.72
31528;BMP280;10206;48.012;10.030;2023-05-20T03:32:31;94725.53;;;15.77
31528;BMP280;10206;48.012;10.030;2023-05-20T03:34:58;94716.94;;;15.71
31528;BMP280;10206;48.012;10.030;2023-05-20T03:37:24;94724.53;;;15.59
31528;BMP280;10206;48.012;10.030;2023-05-20T03:39:50;94718.06;;;15.66
31528;BMP280;10206;48.012;10.030;2023-05-20T03:42:17;94721.38;;;15.76
31528;BMP280;10206;48.012;10.030;2023-05-20T03:44:43;94718.38;;;15.72
31528;BMP280;10206;48.012;10.030;2023-05-20T03:47:09;94712.66;;;15.68
31528;BMP280;10206;48.012;10.030;2023-05-20T03:49:35;94712.13;;;15.46
31528;BMP280;10206;48.012;10.030;2023-05-20T03:52:01;94706.34;;;15.65
31528;BMP280;10206;48.012;10.030;2023-05-20T03:54:28;94703.06;;;15.44
31528;BMP280;10206;48.012;10.030;2023-05-20T03:56:56;94702.06;;;15.51
31528;BMP280;10206;48.012;10.030;2023-05-20T03:59:22;94706.84;;;15.50
31528;BMP280;10206;48.012;10.030;2023-05-20T04:01:48;94705.81;;;15.44
31528;BMP280;10206;48.012;10.030;2023-05-20T04:04:14;94702.91;;;15.42
31528;BMP280;10206;48.012;10.030;2023-05-20T04:06:40;94704.88;;;15.28
31528;BMP280;10206;48.012;10.030;2023-05-20T04:09:06;94703.91;;;15.35
31528;BMP280;10206;48.012;10.030;2023-05-20T04:11:32;94709.69;;;15.64
31528;BMP280;10206;48.012;10.030;2023-05-20T04:13:58;94708.41;;;15.53
31528;BMP280;10206;48.012;10.030;2023-05-20T04:16:25;94709.56;;;15.62
31528;BMP280;10206;48.012;10.030;2023-05-20T04:18:51;94708.06;;;15.36
31528;BMP280;10206;48.012;10.030;2023-05-20T04:21:18;94712.59;;;15.43
31528;BMP280;10206;48.012;10.030;2023-05-20T04:23:44;94715.16;;;15.27
31528;BMP280;10206;48.012;10.030;2023-05-20T04:26:10;94723.81;;;15.58
31528;BMP280;10206;48.012;10.030;2023-05-20T04:28:37;94719.97;;;15.63
31528;BMP280;10206;48.012;10.030;2023-05-20T04:31:04;94717.72;;;15.60
31528;BMP280;10206;48.012;10.030;2023-05-20T04:33:30;94715.88;;;15.28
31528;BMP280;10206;48.012;10.030;2023-05-20T04:35:58;94721.81;;;15.36
31528;BMP280;10206;48.012;10.030;2023-05-20T04:38:24;94724.00;;;15.14
31528;BMP280;10206;48.012;10.030;2023-05-20T04:40:55;94720.56;;;15.62
31528;BMP280;10206;48.012;10.030;2023-05-20T04:43:23;94707.56;;;15.51
31528;BMP280;10206;48.012;10.030;2023-05-20T04:45:50;94703.97;;;15.60
31528;BMP280;10206;48.012;10.030;2023-05-20T04:48:18;94711.00;;;15.51
31528;BMP280;10206;48.012;10.030;2023-05-20T04:50:44;94718.19;;;15.56
31528;BMP280;10206;48.012;10.030;2023-05-20T04:53:11;94715.19;;;15.64
31528;BMP280;10206;48.012;10.030;2023-05-20T04:55:37;94717.22;;;15.63
31528;BMP280;10206;48.012;10.030;2023-05-20T04:58:03;94719.63;;;15.46
31528;BMP280;10206;48.012;10.030;2023-05-20T05:00:30;94718.88;;;15.68
31528;BMP280;10206;48.012;10.030;2023-05-20T05:02:56;94721.53;;;15.55
31528;BMP280;10206;48.012;10.030;2023-05-20T05:05:22;94716.94;;;15.71
31528;BMP280;10206;48.012;10.030;2023-05-20T05:07:48;94715.72;;;15.74
31528;BMP280;10206;48.012;10.030;2023-05-20T05:10:14;94717.28;;;15.77
31528;BMP280;10206;48.012;10.030;2023-05-20T05:12:40;94716.59;;;15.77
31528;BMP280;10206;48.012;10.030;2023-05-20T05:15:07;94710.38;;;15.76
31528;BMP280;10206;48.012;10.030;2023-05-20T05:17:33;94712.56;;;15.91
31528;BMP280;10206;48.012;10.030;2023-05-20T05:19:59;94702.72;;;16.00
31528;BMP280;10206;48.012;10.030;2023-05-20T05:22:25;94706.84;;;15.87
31528;BMP280;10206;48.012;10.030;2023-05-20T05:24:51;94699.63;;;15.94
31528;BMP280;10206;48.012;10.030;2023-05-20T05:27:17;94695.84;;;15.87
31528;BMP280;10206;48.012;10.030;2023-05-20T05:29:44;94697.03;;;15.84
31528;BMP280;10206;48.012;10.030;2023-05-20T05:32:10;94706.03;;;15.48
31528;BMP280;10206;48.012;10.030;2023-05-20T05:34:36;94703.88;;;15.46
31528;BMP280;10206;48.012;10.030;2023-05-20T05:37:02;94704.59;;;15.47
31528;BMP280;10206;48.012;10.030;2023-05-20T05:39:28;94702.94;;;15.79
31528;BMP280;10206;48.012;10.030;2023-05-20T05:41:54;94697.19;;;15.86
31528;BMP280;10206;48.012;10.030;2023-05-20T05:44:21;94698.88;;;15.80
31528;BMP280;10206;48.012;10.030;2023-05-20T05:46:47;94697.81;;;15.73
31528;BMP280;10206;48.012;10.030;2023-05-20T05:49:13;94700.47;;;15.96
31528;BMP280;10206;48.012;10.030;2023-05-20T05:51:39;94700.81;;;16.02
31528;BMP280;10206;48.012;10.030;2023-05-20T05:54:05;94696.50;;;15.99
31528;BMP280;10206;48.012;10.030;2023-05-20T05:56:31;94709.53;;;15.74
31528;BMP280;10206;48.012;10.030;2023-05-20T05:58:57;94693.19;;;15.89
31528;BMP280;10206;48.012;10.030;2023-05-20T06:01:23;94701.56;;;15.91
31528;BMP280;10206;48.012;10.030;2023-05-20T06:03:49;94703.63;;;15.54
31528;BMP280;10206;48.012;10.030;2023-05-20T06:06:16;94706.84;;;15.50
31528;BMP280;10206;48.012;10.030;2023-05-20T06:08:42;94711.22;;;15.67
31528;BMP280;10206;48.012;10.030;2023-05-20T06:11:08;94705.91;;;15.46
31528;BMP280;10206;48.012;10.030;2023-05-20T06:13:35;94700.19;;;15.79
31528;BMP280;10206;48.012;10.030;2023-05-20T06:16:01;94706.41;;;15.67
31528;BMP280;10206;48.012;10.030;2023-05-20T06:18:27;94711.50;;;16.10
31528;BMP280;10206;48.012;10.030;2023-05-20T06:20:57;94713.06;;;15.51
31528;BMP280;10206;48.012;10.030;2023-05-20T06:23:23;94712.69;;;15.93
31528;BMP280;10206;48.012;10.030;2023-05-20T06:25:50;94711.44;;;15.83
31528;BMP280;10206;48.012;10.030;2023-05-20T06:28:16;94707.31;;;15.84
31528;BMP280;10206;48.012;10.030;2023-05-20T06:30:42;94705.13;;;15.94
31528;BMP280;10206;48.012;10.030;2023-05-20T06:33:09;94705.53;;;16.13
31528;BMP280;10206;48.012;10.030;2023-05-20T06:35:36;94697.22;;;16.25
31528;BMP280;10206;48.012;10.030;2023-05-20T06:38:02;94695.16;;;16.25
31528;BMP280;10206;48.012;10.030;2023-05-20T06:40:28;94700.41;;;16.46
31528;BMP280;10206;48.012;10.030;2023-05-20T06:42:54;94696.72;;;16.28
31528;BMP280;10206;48.012;10.030;2023-05-20T06:45:20;94699.13;;;15.72
31528;BMP280;10206;48.012;10.030;2023-05-20T06:47:46;94688.59;;;15.80
31528;BMP280;10206;48.012;10.030;2023-05-20T06:50:14;94688.25;;;15.99
31528;BMP280;10206;48.012;10.030;2023-05-20T06:52:40;94679.53;;;16.16
31528;BMP280;10206;48.012;10.030;2023-05-20T06:55:07;94679.31;;;16.37
31528;BMP280;10206;48.012;10.030;2023-05-20T06:57:33;94673.97;;;16.41
31528;BMP280;10206;48.012;10.030;2023-05-20T06:59:59;94687.06;;;16.54
31528;BMP280;10206;48.012;10.030;2023-05-20T07:02:25;94692.53;;;16.27
31528;BMP280;10206;48.012;10.030;2023-05-20T07:04:51;94683.63;;;16.68
31528;BMP280;10206;48.012;10.030;2023-05-20T07:07:17;94695.44;;;16.56
31528;BMP280;10206;48.012;10.030;2023-05-20T07:09:44;94689.94;;;16.56
31528;BMP280;10206;48.012;10.030;2023-05-20T07:12:11;94688.16;;;15.97
31528;BMP280;10206;48.012;10.030;2023-05-20T07:14:37;94688.69;;;16.07
31528;BMP280;10206;48.012;10.030;2023-05-20T07:17:05;94685.09;;;16.05
31528;BMP280;10206;48.012;10.030;2023-05-20T07:19:31;94684.22;;;15.89
31528;BMP280;10206;48.012;10.030;2023-05-20T07:21:58;94680.28;;;15.92
31528;BMP280;10206;48.012;10.030;2023-05-20T07:24:25;94685.66;;;16.15
31528;BMP280;10206;48.012;10.030;2023-05-20T07:26:51;94686.03;;;16.34
31528;BMP280;10206;48.012;10.030;2023-05-20T07:29:17;94676.16;;;16.43
31528;BMP280;10206;48.012;10.030;2023-05-20T07:31:43;94678.44;;;16.21
31528;BMP280;10206;48.012;10.030;2023-05-20T07:34:09;94679.06;;;15.95
31528;BMP280;10206;48.012;10.030;2023-05-20T07:36:35;94677.44;;;15.78
31528;BMP280;10206;48.012;10.030;2023-05-20T07:39:02;94676.25;;;16.06
31528;BMP280;10206;48.012;10.030;2023-05-20T07:41:29;94677.00;;;16.20
31528;BMP280;10206;48.012;10.030;2023-05-20T07:43:55;94667.56;;;16.37
31528;BMP280;10206;48.012;10.030;2023-05-20T07:46:21;94662.75;;;16.24
31528;BMP280;10206;48.012;10.030;2023-05-20T07:48:47;94673.66;;;16.61
31528;BMP280;10206;48.012;10.030;2023-05-20T07:51:13;94667.41;;;16.74
31528;BMP280;10206;48.012;10.030;2023-05-20T07:53:39;94673.03;;;16.23
31528;BMP280;10206;48.012;10.030;2023-05-20T07:56:05;94679.88;;;15.97
31528;BMP280;10206;48.012;10.030;2023-05-20T07:58:32;94667.56;;;16.37
31528;BMP280;10206;48.012;10.030;2023-05-20T08:00:58;94663.16;;;16.32
31528;BMP280;10206;48.012;10.030;2023-05-20T08:03:24;94667.00;;;16.79
31528;BMP280;10206;48.012;10.030;2023-05-20T08:05:51;94659.13;;;16.74
31528;BMP280;10206;48.012;10.030;2023-05-20T08:08:17;94660.69;;;16.90
31528;BMP280;10206;48.012;10.030;2023-05-20T08:10:43;94664.84;;;16.78
31528;BMP280;10206;48.012;10.030;2023-05-20T08:13:09;94664.06;;;16.89
31528;BMP280;10206;48.012;10.030;2023-05-20T08:15:36;94661.75;;;17.12
31528;BMP280;10206;48.012;10.030;2023-05-20T08:18:02;94662.47;;;17.13
31528;BMP280;10206;48.012;10.030;2023-05-20T08:20:28;94654.72;;;17.23
31528;BMP280;10206;48.012;10.030;2023-05-20T08:22:55;94667.50;;;17.03
31528;BMP280;10206;48.012;10.030;2023-05-20T08:25:21;94664.88;;;17.05
31528;BMP280;10206;48.012;10.030;2023-05-20T08:27:48;94658.31;;;17.55
31528;BMP280;10206;48.012;10.030;2023-05-20T08:30:14;94659.63;;;17.24
31528;BMP280;10206;48.012;10.030;2023-05-20T08:32:40;94661.50;;;17.49
31528;BMP280;10206;48.012;10.030;2023-05-20T08:35:07;94654.44;;;17.60
31528;BMP280;10206;48.012;10.030;2023-05-20T08:37:33;94654.69;;;17.79
31528;BMP280;10206;48.012;10.030;2023-05-20T08:39:59;94656.28;;;18.00
31528;BMP280;10206;48.012;10.030;2023-05-20T08:42:25;94659.81;;;18.47
31528;BMP280;10206;48.012;10.030;2023-05-20T08:44:55;94659.88;;;18.02
31528;BMP280;10206;48.012;10.030;2023-05-20T08:47:22;94648.06;;;17.86
31528;BMP280;10206;48.012;10.030;2023-05-20T08:49:50;94652.03;;;18.12
31528;BMP280;10206;48.012;10.030;2023-05-20T08:52:18;94656.47;;;17.88
31528;BMP280;10206;48.012;10.030;2023-05-20T08:54:48;94655.63;;;18.30
31528;BMP280;10206;48.012;10.030;2023-05-20T08:57:14;94659.38;;;18.37
31528;BMP280;10206;48.012;10.030;2023-05-20T08:59:42;94668.88;;;19.14
31528;BMP280;10206;48.012;10.030;2023-05-20T09:02:09;94661.00;;;19.24
31528;BMP280;10206;48.012;10.030;2023-05-20T09:04:36;94665.81;;;19.23
31528;BMP280;10206;48.012;10.030;2023-05-20T09:07:03;94655.78;;;18.81
31528;BMP280;10206;48.012;10.030;2023-05-20T09:09:30;94656.88;;;19.07
31528;BMP280;10206;48.012;10.030;2023-05-20T09:11:57;94666.44;;;18.89
31528;BMP280;10206;48.012;10.030;2023-05-20T09:14:23;94655.13;;;19.16
31528;BMP280;10206;48.012;10.030;2023-05-20T09:16:52;94659.63;;;19.07
31528;BMP280;10206;48.012;10.030;2023-05-20T09:19:22;94659.56;;;19.40
31528;BMP280;10206;48.012;10.030;2023-05-20T09:21:53;94668.97;;;18.52
31528;BMP280;10206;48.012;10.030;2023-05-20T09:24:22;94667.16;;;18.89
31528;BMP280;10206;48.012;10.030;2023-05-20T09:26:50;94664.44;;;18.58
31528;BMP280;10206;48.012;10.030;2023-05-20T09:29:16;94667.81;;;19.05
31528;BMP280;10206;48.012;10.030;2023-05-20T09:31:42;94667.53;;;19.15
31528;BMP280;10206;48.012;10.030;2023-05-20T09:34:09;94657.78;;;19.82
31528;BMP280;10206;48.012;10.030;2023-05-20T09:36:36;94655.34;;;19.55
31528;BMP280;10206;48.012;10.030;2023-05-20T09:39:04;94655.59;;;19.44
31528;BMP280;10206;48.012;10.030;2023-05-20T09:41:53;94664.31;;;19.38
31528;BMP280;10206;48.012;10.030;2023-05-20T09:44:20;94675.13;;;19.14
31528;BMP280;10206;48.012;10.030;2023-05-20T09:46:48;94660.19;;;19.04
31528;BMP280;10206;48.012;10.030;2023-05-20T09:49:15;94662.81;;;19.17
31528;BMP280;10206;48.012;10.030;2023-05-20T09:51:43;94663.25;;;18.79
31528;BMP280;10206;48.012;10.030;2023-05-20T09:54:12;94654.22;;;18.94
31528;BMP280;10206;48.012;10.030;2023-05-20T09:56:40;94663.84;;;19.26
31528;BMP280;10206;48.012;10.030;2023-05-20T09:59:07;94654.91;;;19.80
31528;BMP280;10206;48.012;10.030;2023-05-20T10:01:33;94655.22;;;19.88
31528;BMP280;10206;48.012;10.030;2023-05-20T10:04:00;94651.19;;;20.28
31528;BMP280;10206;48.012;10.030;2023-05-20T10:17:17;94650.09;;;19.63
31528;BMP280;10206;48.012;10.030;2023-05-20T10:19:45;94648.63;;;20.34
31528;BMP280;10206;48.012;10.030;2023-05-20T10:22:11;94640.78;;;20.09
31528;BMP280;10206;48.012;10.030;2023-05-20T10:24:41;94643.41;;;20.05
31528;BMP280;10206;48.012;10.030;2023-05-20T10:27:11;94639.84;;;19.66
31528;BMP280;10206;48.012;10.030;2023-05-20T10:29:42;94647.28;;;20.16
31528;BMP280;10206;48.012;10.030;2023-05-20T10:32:08;94646.00;;;20.38
31528;BMP280;10206;48.012;10.030;2023-05-20T10:34:45;94649.69;;;20.25
31528;BMP280;10206;48.012;10.030;2023-05-20T10:37:28;94645.81;;;19.95
31528;BMP280;10206;48.012;10.030;2023-05-20T10:40:14;94638.63;;;20.45
31528;BMP280;10206;48.012;10.030;2023-05-20T10:42:41;94634.69;;;20.72
31528;BMP280;10206;48.012;10.030;2023-05-20T10:45:09;94634.06;;;20.54
31528;BMP280;10206;48.012;10.030;2023-05-20T10:47:40;94633.44;;;20.75
31528;BMP280;10206;48.012;10.030;2023-05-20T10:50:07;94628.84;;;20.42
31528;BMP280;10206;48.012;10.030;2023-05-20T10:52:37;94639.28;;;20.06
31528;BMP280;10206;48.012;10.030;2023-05-20T10:55:05;94643.97;;;20.21
31528;BMP280;10206;48.012;10.030;2023-05-20T10:57:33;94646.00;;;21.19
31528;BMP280;10206;48.012;10.030;2023-05-20T10:59:59;94654.91;;;21.82
31528;BMP280;10206;48.012;10.030;2023-05-20T11:02:26;94643.25;;;22.11
31528;BMP280;10206;48.012;10.030;2023-05-20T11:04:56;94653.06;;;22.38
31528;BMP280;10206;48.012;10.030;2023-05-20T11:07:30;94645.13;;;23.37
31528;BMP280;10206;48.012;10.030;2023-05-20T11:09:59;94644.28;;;22.47
31528;BMP280;10206;48.012;10.030;2023-05-20T11:12:26;94645.09;;;23.05
31528;BMP280;10206;48.012;10.030;2023-05-20T11:14:53;94641.69;;;23.09
31528;BMP280;10206;48.012;10.030;2023-05-20T11:17:19;94627.72;;;22.02
31528;BMP280;10206;48.012;10.030;2023-05-20T11:19:46;94633.97;;;22.03
31528;BMP280;10206;48.012;10.030;2023-05-20T11:22:12;94647.06;;;21.75
31528;BMP280;10206;48.012;10.030;2023-05-20T11:24:39;94636.56;;;22.46
31528;BMP280;10206;48.012;10.030;2023-05-20T11:27:06;94631.53;;;22.38
31528;BMP280;10206;48.012;10.030;2023-05-20T11:29:32;94616.53;;;22.49
31528;BMP280;10206;48.012;10.030;2023-05-20T11:31:59;94607.97;;;22.41
31528;BMP280;10206;48.012;10.030;2023-05-20T11:34:31;94607.38;;;21.48
31528;BMP280;10206;48.012;10.030;2023-05-20T11:36:58;94610.91;;;22.22
31528;BMP280;10206;48.012;10.030;2023-05-20T11:39:24;94616.28;;;22.39
31528;BMP280;10206;48.012;10.030;2023-05-20T11:41:54;94600.78;;;21.83
31528;BMP280;10206;48.012;10.030;2023-05-20T11:44:20;94592.47;;;22.32
31528;BMP280;10206;48.012;10.030;2023-05-20T11:46:47;94596.97;;;22.20
31528;BMP280;10206;48.012;10.030;2023-05-20T11:49:15;94586.50;;;22.18
31528;BMP280;10206;48.012;10.030;2023-05-20T11:51:42;94593.69;;;22.02
31528;BMP280;10206;48.012;10.030;2023-05-20T11:54:09;94586.72;;;21.77
31528;BMP280;10206;48.012;10.030;2023-05-20T11:56:38;94593.16;;;22.58
31528;BMP280;10206;48.012;10.030;2023-05-20T11:59:07;94590.28;;;23.75
31528;BMP280;10206;48.012;10.030;2023-05-20T12:01:36;94584.69;;;23.41
31528;BMP280;10206;48.012;10.030;2023-05-20T12:04:08;94569.03;;;23.26
31528;BMP280;10206;48.012;10.030;2023-05-20T12:06:35;94579.09;;;23.73
31528;BMP280;10206;48.012;10.030;2023-05-20T12:09:20;94566.94;;;22.40
31528;BMP280;10206;48.012;10.030;2023-05-20T12:11:47;94570.63;;;22.76
31528;BMP280;10206;48.012;10.030;2023-05-20T12:14:13;94574.88;;;22.79
31528;BMP280;10206;48.012;10.030;2023-05-20T12:16:39;94572.44;;;22.66
31528;BMP280;10206;48.012;10.030;2023-05-20T12:19:05;94576.09;;;22.19
31528;BMP280;10206;48.012;10.030;2023-05-20T12:21:33;94577.00;;;22.53
31528;BMP280;10206;48.012;10.030;2023-05-20T12:23:59;94565.69;;;21.70
31528;BMP280;10206;48.012;10.030;2023-05-20T12:26:27;94577.22;;;22.89
31528;BMP280;10206;48.012;10.030;2023-05-20T12:28:53;94576.72;;;23.59
31528;BMP280;10206;48.012;10.030;2023-05-20T12:31:20;94580.00;;;24.17
31528;BMP280;10206;48.012;10.030;2023-05-20T12:33:46;94575.69;;;23.43
31528;BMP280;10206;48.012;10.030;2023-05-20T12:36:13;94573.88;;;23.89
31528;BMP280;10206;48.012;10.030;2023-05-20T12:38:39;94566.53;;;24.83
31528;BMP280;10206;48.012;10.030;2023-05-20T12:41:06;94573.13;;;24.62
31528;BMP280;10206;48.012;10.030;2023-05-20T12:43:33;94563.34;;;25.02
31528;BMP280;10206;48.012;10.030;2023-05-20T12:45:59;94568.25;;;25.04
31528;BMP280;10206;48.012;10.030;2023-05-20T12:48:26;94556.16;;;24.91
31528;BMP280;10206;48.012;10.030;2023-05-20T12:50:52;94550.50;;;24.83
31528;BMP280;10206;48.012;10.030;2023-05-20T12:53:18;94547.53;;;24.32
31528;BMP280;10206;48.012;10.030;2023-05-20T12:55:44;94544.38;;;23.78
31528;BMP280;10206;48.012;10.030;2023-05-20T12:58:10;94543.50;;;24.03
31528;BMP280;10206;48.012;10.030;2023-05-20T13:00:36;94539.47;;;23.43
31528;BMP280;10206;48.012;10.030;2023-05-20T13:03:02;94541.75;;;23.50
31528;BMP280;10206;48.012;10.030;2023-05-20T13:05:28;94535.38;;;24.17
31528;BMP280;10206;48.012;10.030;2023-05-20T13:07:54;94535.22;;;24.47
31528;BMP280;10206;48.012;10.030;2023-05-20T13:10:20;94531.56;;;23.99
31528;BMP280;10206;48.012;10.030;2023-05-20T13:12:48;94531.25;;;24.20
31528;BMP280;10206;48.012;10.030;2023-05-20T13:15:14;94534.13;;;24.24
31528;BMP280;10206;48.012;10.030;2023-05-20T13:17:40;94516.19;;;23.62
31528;BMP280;10206;48.012;10.030;2023-05-20T13:20:10;94515.44;;;23.59
31528;BMP280;10206;48.012;10.030;2023-05-20T13:22:36;94510.59;;;23.96
31528;BMP280;10206;48.012;10.030;2023-05-20T13:25:03;94512.28;;;24.11
31528;BMP280;10206;48.012;10.030;2023-05-20T13:27:29;94513.66;;;23.74
31528;BMP280;10206;48.012;10.030;2023-05-20T13:29:56;94503.16;;;23.70
31528;BMP280;10206;48.012;10.030;2023-05-20T13:32:22;94504.50;;;24.05
31528;BMP280;10206;48.012;10.030;2023-05-20T13:34:48;94491.22;;;23.66
31528;BMP280;10206;48.012;10.030;2023-05-20T13:37:14;94503.16;;;24.06
31528;BMP280;10206;48.012;10.030;2023-05-20T13:39:40;94495.13;;;23.51
31528;BMP280;10206;48.012;10.030;2023-05-20T13:42:06;94489.47;;;23.49
31528;BMP280;10206;48.012;10.030;2023-05-20T13:44:32;94496.09;;;24.01
31528;BMP280;10206;48.012;10.030;2023-05-20T13:46:59;94488.84;;;23.52
31528;BMP280;10206;48.012;10.030;2023-05-20T13:49:25;94487.81;;;24.07
31528;BMP280;10206;48.012;10.030;2023-05-20T13:51:51;94479.53;;;24.11
31528;BMP280;10206;48.012;10.030;2023-05-20T13:54:17;94475.97;;;24.07
31528;BMP280;10206;48.012;10.030;2023-05-20T13:56:43;94478.81;;;24.11
31528;BMP280;10206;48.012;10.030;2023-05-20T13:59:09;94466.41;;;24.18
31528;BMP280;10206;48.012;10.030;2023-05-20T14:01:35;94476.31;;;23.87
31528;BMP280;10206;48.012;10.030;2023-05-20T14:04:02;94475.75;;;24.32
31528;BMP280;10206;48.012;10.030;2023-05-20T14:06:28;94466.53;;;23.86